Buckeye, AZ

12:38 PM MST on July 24, 2017 (GMT -0700)
Buckeye Municipal

Weather History for KBXK - September, 2013

Change the Weather History Date:

Sunday, September 8, 2013

  Actual Average (KGYR) Record (KGYR)
Temperature  
Mean Temperature 83 °F -  
Max Temperature 89 °F 99 °F 107 °F (2011)
Min Temperature 77 °F 74 °F 71 °F (1999)
Cooling Degree Days 18    
Growing Degree Days 33 (Base 50)    
Moisture  
Dew Point 65 °F    
Average Humidity 57    
Maximum Humidity 65    
Minimum Humidity 43    
Precipitation  
Precipitation 0.00 in - - ()
Sea Level Pressure  
Sea Level Pressure 29.82 in    
Wind  
Wind Speed 7 mph (East)    
Max Wind Speed 22 mph    
Max Gust Speed 28 mph    
Visibility 10 miles    
Events      
Averages and records for this station are not official NWS values.
T = Trace of Precipitation, MM = Missing Value Source: NWS Daily Summary

Daily Weather History Graph

Daily Weather History Graph

Search for Another Location

Airport or City:

Trip Planner

Search our weather history database for the weather conditions in past years. The results will help you decide how hot, cold, wet, or windy it might be!

Date:

Astronomy

Sep. 08, 2013 Rise Set
Actual Time 6:09 AM MST 6:46 PM MST
Civil Twilight 5:44 AM MST 7:11 PM MST
Nautical Twilight 5:15 AM MST 7:40 PM MST
Astronomical Twilight 4:45 AM MST 8:10 PM MST
Moon 9:18 AM MST (9/8) 8:38 PM MST (9/8)
Length of Visible Light 13h 26m
Length of Day
12h 36m
Waxing Crescent, 12% of the Moon is Illuminated
Sep 8
Waxing Crescent
Sep 12
First Quarter
Sep 19
Full
Sep 26
Last Quarter
Oct 4
New

Hourly Weather History & Observations

Time (MST) Temp. Heat Index Dew Point Humidity Pressure Visibility Wind Dir Wind Speed Gust Speed Precip Events Conditions
12:15 AM 82.4 °F 83.4 °F 62.6 °F 51% 29.84 in 10.0 mi NNW 6.9 mph - N/A   Overcast
12:35 AM 82.4 °F 83.4 °F 62.6 °F 51% 29.84 in 10.0 mi NNW 6.9 mph - N/A   Mostly Cloudy
12:55 AM 82.4 °F 83.4 °F 62.6 °F 51% 29.84 in 10.0 mi NNW 6.9 mph - N/A   Unknown
1:15 AM 82.4 °F 83.4 °F 62.6 °F 51% 29.83 in 10.0 mi NNW 5.8 mph - N/A   Partly Cloudy
1:35 AM 82.4 °F 83.4 °F 62.6 °F 51% 29.84 in 10.0 mi North 4.6 mph - N/A   Partly Cloudy
1:55 AM 80.6 °F 81.8 °F 62.6 °F 54% 29.83 in 10.0 mi WNW 5.8 mph - N/A   Mostly Cloudy
2:15 AM 80.6 °F 81.8 °F 62.6 °F 54% 29.83 in 10.0 mi NW 5.8 mph - N/A   Overcast
2:35 AM 80.6 °F 81.8 °F 62.6 °F 54% 29.83 in 10.0 mi North 5.8 mph - N/A   Scattered Clouds
2:55 AM 80.6 °F 81.8 °F 62.6 °F 54% 29.83 in 10.0 mi North 5.8 mph - N/A   Clear
3:15 AM 80.6 °F 81.8 °F 62.6 °F 54% 29.82 in 10.0 mi NW 3.5 mph - N/A   Unknown
3:35 AM 77.0 °F - 62.6 °F 61% 29.82 in 10.0 mi Calm Calm - N/A   Unknown
3:55 AM 77.0 °F - 64.4 °F 65% 29.82 in 10.0 mi Calm Calm - N/A   Mostly Cloudy
4:15 AM 77.0 °F - 64.4 °F 65% 29.82 in 10.0 mi Calm Calm - N/A   Overcast
4:35 AM 77.0 °F - 64.4 °F 65% 29.82 in 10.0 mi Calm Calm - N/A   Overcast
4:55 AM 77.0 °F - 64.4 °F 65% 29.82 in 10.0 mi Calm Calm - N/A   Overcast
5:15 AM 77.0 °F - 64.4 °F 65% 29.82 in 10.0 mi NW 3.5 mph - N/A   Overcast
5:35 AM 77.0 °F - 64.4 °F 65% 29.83 in 10.0 mi West 3.5 mph - N/A   Overcast
5:55 AM 77.0 °F - 64.4 °F 65% 29.83 in 10.0 mi Calm Calm - N/A   Overcast
6:15 AM 78.8 °F - 64.4 °F 61% 29.83 in 10.0 mi NE 3.5 mph - N/A   Overcast
6:35 AM 80.6 °F 82.3 °F 64.4 °F 58% 29.83 in 10.0 mi NE 3.5 mph - N/A   Mostly Cloudy
6:55 AM 80.6 °F 82.3 °F 64.4 °F 58% 29.83 in 10.0 mi Calm Calm - N/A   Mostly Cloudy
7:15 AM 82.4 °F 83.9 °F 64.4 °F 54% 29.84 in 10.0 mi East 4.6 mph - N/A   Scattered Clouds
7:35 AM 82.4 °F 84.6 °F 66.2 °F 58% 29.84 in 10.0 mi Calm Calm - N/A   Mostly Cloudy
7:55 AM 80.6 °F 83.2 °F 68.0 °F 65% 29.85 in 9.0 mi SE 4.6 mph - N/A   Mostly Cloudy
8:15 AM 80.6 °F 82.7 °F 66.2 °F 61% 29.85 in 9.0 mi SE 4.6 mph - N/A   Mostly Cloudy
8:35 AM 80.6 °F 82.7 °F 66.2 °F 61% 29.86 in 10.0 mi ESE 6.9 mph - N/A   Overcast
8:55 AM 82.4 °F 83.9 °F 64.4 °F 54% 29.88 in 10.0 mi ESE 12.7 mph 17.3 mph N/A   Scattered Clouds
9:15 AM 80.6 °F 83.2 °F 68.0 °F 65% 29.88 in 10.0 mi East 19.6 mph - N/A   Clear
9:35 AM 80.6 °F 83.2 °F 68.0 °F 65% 29.88 in 10.0 mi East 16.1 mph - N/A   Partly Cloudy
9:55 AM 80.6 °F 83.2 °F 68.0 °F 65% 29.88 in 10.0 mi East 13.8 mph - N/A   Partly Cloudy
10:15 AM 80.6 °F 83.2 °F 68.0 °F 65% 29.88 in 10.0 mi East 18.4 mph 23.0 mph N/A   Clear
10:35 AM 80.6 °F 83.2 °F 68.0 °F 65% 29.88 in 10.0 mi East 19.6 mph - N/A   Partly Cloudy
10:55 AM 80.6 °F 83.2 °F 68.0 °F 65% 29.88 in 10.0 mi East 20.7 mph 26.5 mph N/A   Partly Cloudy
11:15 AM 80.6 °F 83.2 °F 68.0 °F 65% 29.88 in 10.0 mi East 17.3 mph 21.9 mph N/A   Scattered Clouds
11:35 AM 82.4 °F 85.4 °F 68.0 °F 62% 29.88 in 10.0 mi ENE 21.9 mph 27.6 mph N/A   Clear
11:55 AM 84.2 °F 87.3 °F 68.0 °F 58% 29.87 in 10.0 mi East 19.6 mph 25.3 mph N/A   Clear
12:15 PM 84.2 °F 86.6 °F 66.2 °F 55% 29.87 in 10.0 mi ENE 18.4 mph - N/A   Clear
12:35 PM 84.2 °F 86.6 °F 66.2 °F 55% 29.86 in 10.0 mi East 18.4 mph 21.9 mph N/A   Clear
12:55 PM 84.2 °F 86.6 °F 66.2 °F 55% 29.86 in 10.0 mi East 16.1 mph 21.9 mph N/A   Clear
1:15 PM 86.0 °F 88.2 °F 66.2 °F 51% 29.85 in 10.0 mi East 17.3 mph 23.0 mph N/A   Clear
1:35 PM 86.0 °F 88.2 °F 66.2 °F 51% 29.84 in 10.0 mi ENE 16.1 mph 21.9 mph N/A   Clear
1:55 PM 86.0 °F 88.2 °F 66.2 °F 51% 29.82 in 10.0 mi East 17.3 mph - N/A   Clear
2:15 PM 86.0 °F 88.2 °F 66.2 °F 51% 29.81 in 10.0 mi ENE 13.8 mph 21.9 mph N/A   Clear
2:35 PM 87.8 °F 90.4 °F 66.2 °F 49% 29.80 in 10.0 mi East 12.7 mph 19.6 mph N/A   Clear
2:55 PM 87.8 °F 89.4 °F 64.4 °F 46% 29.79 in 10.0 mi East 12.7 mph 20.7 mph N/A   Clear
3:15 PM 89.6 °F 91.1 °F 64.4 °F 43% 29.79 in 10.0 mi East 12.7 mph 17.3 mph N/A   Clear
3:35 PM 87.8 °F 89.4 °F 64.4 °F 46% 29.78 in 10.0 mi East 12.7 mph - N/A   Clear
3:55 PM 86.0 °F 87.3 °F 64.4 °F 48% 29.78 in 10.0 mi East 9.2 mph - N/A   Clear
4:15 PM 87.8 °F 90.4 °F 66.2 °F 49% 29.76 in 10.0 mi East 9.2 mph - N/A   Clear
4:35 PM 87.8 °F 89.4 °F 64.4 °F 46% 29.76 in 10.0 mi ESE 8.1 mph - N/A   Clear
4:55 PM 86.0 °F 87.3 °F 64.4 °F 48% 29.76 in 10.0 mi SE 6.9 mph - N/A   Clear
5:15 PM 86.0 °F 87.3 °F 64.4 °F 48% 29.75 in 10.0 mi East 10.4 mph - N/A   Clear
5:35 PM 86.0 °F 88.2 °F 66.2 °F 51% 29.75 in 10.0 mi ESE 10.4 mph - N/A   Clear
5:55 PM 86.0 °F 87.3 °F 64.4 °F 48% 29.75 in 10.0 mi ESE 9.2 mph - N/A   Clear
6:15 PM 86.0 °F 87.3 °F 64.4 °F 48% 29.75 in 10.0 mi ESE 8.1 mph - N/A   Clear
6:35 PM 86.0 °F 87.3 °F 64.4 °F 48% 29.75 in 10.0 mi ESE 6.9 mph - N/A   Clear
6:55 PM 84.2 °F 85.6 °F 64.4 °F 51% 29.75 in 10.0 mi ESE 5.8 mph - N/A   Clear
7:15 PM 84.2 °F 86.6 °F 66.2 °F 55% 29.75 in 10.0 mi East 6.9 mph - N/A   Mostly Cloudy
7:35 PM 82.4 °F 84.6 °F 66.2 °F 58% 29.75 in 10.0 mi ESE 8.1 mph - N/A   Overcast
7:55 PM 82.4 °F 84.6 °F 66.2 °F 58% 29.76 in 10.0 mi East 6.9 mph - N/A   Mostly Cloudy
8:15 PM 82.4 °F 84.6 °F 66.2 °F 58% 29.76 in 10.0 mi East 6.9 mph - N/A   Clear
8:35 PM 80.6 °F 83.2 °F 68.0 °F 65% 29.77 in 10.0 mi East 8.1 mph - N/A   Clear
8:55 PM 80.6 °F 83.2 °F 68.0 °F 65% 29.78 in 10.0 mi ESE 5.8 mph - N/A   Clear
9:15 PM 80.6 °F 83.2 °F 68.0 °F 65% 29.78 in 10.0 mi SE 3.5 mph - N/A   Clear
9:35 PM 80.6 °F 83.2 °F 68.0 °F 65% 29.79 in 10.0 mi East 4.6 mph - N/A   Clear
9:55 PM 80.6 °F 83.2 °F 68.0 °F 65% 29.79 in 10.0 mi ESE 3.5 mph - N/A   Clear
10:15 PM 80.6 °F 83.2 °F 68.0 °F 65% 29.79 in 10.0 mi Calm Calm - N/A   Clear
10:35 PM 80.6 °F 82.7 °F 66.2 °F 61% 29.79 in 10.0 mi Calm Calm - N/A   Clear
10:55 PM 80.6 °F 82.7 °F 66.2 °F 61% 29.79 in 10.0 mi NE 5.8 mph - N/A   Clear
11:15 PM 80.6 °F 82.7 °F 66.2 °F 61% 29.78 in 10.0 mi ENE 4.6 mph - N/A   Unknown
11:35 PM 80.6 °F 82.7 °F 66.2 °F 61% 29.78 in 10.0 mi NE 6.9 mph - N/A   Unknown
11:55 PM 80.6 °F 82.7 °F 66.2 °F 61% 29.78 in 10.0 mi NE 4.6 mph - N/A   Clear